Time;durP1;ratioP1;P1;durP2;ratioP2;P2;SDS_P1;SDS_P2;PMS_P1;PMS_P2;Temp;Humidity;BMP_temperature;BMP_pressure;BME280_temperature;BME280_humidity;BME280_pressure;Samples;Min_cycle;Max_cycle;Signal;HPM_P1;HPM_P2
2022/01/09 00:01:36;;;;;;;8.38;3.15;;;;;;;;;;5121882;28;20171;-81
2022/01/09 00:04:02;;;;;;;13.53;2.90;;;;;;;;;;5104865;28;20175;-78
2022/01/09 00:06:28;;;;;;;5.38;2.00;;;;;;;;;;5095588;28;20461;-77
2022/01/09 00:08:54;;;;;;;10.80;2.60;;;;;;;;;;5099216;28;20175;-82
2022/01/09 00:11:26;;;;;;;3.90;2.13;;;;;;;;;;5117984;28;20475;-77
2022/01/09 00:13:52;;;;;;;20.98;2.80;;;;;;;;;;5104601;28;20274;-77
2022/01/09 00:16:20;;;;;;;12.85;2.63;;;;;;;;;;5119007;28;20183;-76
2022/01/09 00:19:56;;;;;;;11.50;2.70;;;;;;;;;;5136220;27;20539;-86
2022/01/09 00:22:32;;;;;;;10.65;2.90;;;;;;;;;;5102414;28;20186;-85
2022/01/09 00:24:58;;;;;;;13.32;3.47;;;;;;;;;;5101153;28;20273;-85
2022/01/09 00:27:25;;;;;;;12.40;2.53;;;;;;;;;;5098029;28;20639;-85
2022/01/09 00:29:51;;;;;;;11.35;3.35;;;;;;;;;;5101107;28;20187;-87
2022/01/09 00:32:17;;;;;;;10.30;2.38;;;;;;;;;;5119843;28;20182;-88
2022/01/09 00:34:43;;;;;;;14.18;2.50;;;;;;;;;;5100997;28;20200;-86
2022/01/09 00:37:09;;;;;;;12.82;3.03;;;;;;;;;;5098125;28;20205;-86
2022/01/09 00:39:35;;;;;;;11.30;1.92;;;;;;;;;;5102073;28;20694;-89
2022/01/09 00:42:01;;;;;;;9.27;2.58;;;;;;;;;;5119039;28;20186;-85
2022/01/09 00:44:27;;;;;;;5.88;2.38;;;;;;;;;;5101742;28;20187;-87
2022/01/09 00:46:56;;;;;;;11.15;2.55;;;;;;;;;;5099068;28;20184;-89
2022/01/09 00:49:22;;;;;;;6.57;2.00;;;;;;;;;;5102769;28;20187;-85
2022/01/09 00:51:49;;;;;;;7.25;2.00;;;;;;;;;;5098217;28;20267;-85
2022/01/09 00:54:14;;;;;;;13.77;2.70;;;;;;;;;;5098039;28;20183;-85
2022/01/09 00:56:40;;;;;;;12.55;2.67;;;;;;;;;;5100451;28;20179;-85
2022/01/09 00:59:06;;;;;;;11.77;2.20;;;;;;;;;;5101579;28;20589;-86
2022/01/09 01:01:32;;;;;;;16.40;2.50;;;;;;;;;;5101294;28;20193;-85
2022/01/09 01:03:58;;;;;;;10.10;3.10;;;;;;;;;;5098370;28;20171;-88
2022/01/09 01:06:24;;;;;;;4.00;1.50;;;;;;;;;;5117374;28;20183;-85
2022/01/09 01:08:50;;;;;;;8.25;1.70;;;;;;;;;;5101981;28;20706;-86
2022/01/09 01:11:16;;;;;;;11.60;2.30;;;;;;;;;;5101571;28;20208;-86
2022/01/09 01:13:42;;;;;;;4.80;1.83;;;;;;;;;;5100900;28;20192;-87
2022/01/09 01:16:08;;;;;;;11.43;2.75;;;;;;;;;;5089739;28;20182;-87
2022/01/09 01:18:34;;;;;;;6.40;2.15;;;;;;;;;;5106731;28;20215;-86
2022/01/09 01:21:01;;;;;;;10.18;1.90;;;;;;;;;;5080973;28;20184;-87
2022/01/09 01:23:27;;;;;;;6.07;1.92;;;;;;;;;;5096493;28;20191;-85
2022/01/09 01:25:53;;;;;;;5.10;3.95;;;;;;;;;;5098732;28;20184;-86
2022/01/09 01:28:19;;;;;;;4.78;1.52;;;;;;;;;;5080925;28;20182;-85
2022/01/09 01:30:46;;;;;;;8.38;2.30;;;;;;;;;;5088406;28;20173;-87
2022/01/09 01:33:11;;;;;;;13.07;3.45;;;;;;;;;;5067691;28;20184;-87
2022/01/09 01:35:37;;;;;;;5.43;1.80;;;;;;;;;;5067607;28;20238;-85
2022/01/09 01:38:03;;;;;;;13.68;2.28;;;;;;;;;;5067337;28;20208;-87
2022/01/09 01:40:29;;;;;;;6.22;1.92;;;;;;;;;;5059823;28;20200;-88
2022/01/09 01:42:55;;;;;;;7.22;2.70;;;;;;;;;;5053073;28;20181;-90
2022/01/09 01:45:21;;;;;;;8.52;2.33;;;;;;;;;;5081560;28;20195;-84
2022/01/09 01:47:47;;;;;;;8.00;2.20;;;;;;;;;;5066426;28;20184;-87
2022/01/09 01:50:14;;;;;;;7.68;2.83;;;;;;;;;;5067817;28;20225;-89
2022/01/09 01:52:44;;;;;;;12.02;2.53;;;;;;;;;;5083125;28;20188;-87
2022/01/09 01:55:11;;;;;;;7.88;2.00;;;;;;;;;;5068828;28;20263;-86
2022/01/09 01:57:41;;;;;;;8.00;2.08;;;;;;;;;;5066948;28;20196;-88
2022/01/09 02:00:09;;;;;;;4.95;1.63;;;;;;;;;;5067620;28;20195;-86
2022/01/09 02:02:35;;;;;;;5.97;1.67;;;;;;;;;;5067195;28;20196;-86
2022/01/09 02:05:01;;;;;;;13.38;3.55;;;;;;;;;;5082765;28;20690;-92
2022/01/09 02:07:28;;;;;;;2.60;1.67;;;;;;;;;;5082596;28;20655;-89
2022/01/09 02:09:54;;;;;;;7.78;1.58;;;;;;;;;;5068517;28;20202;-88
2022/01/09 02:12:20;;;;;;;4.32;1.13;;;;;;;;;;5084567;28;20378;-89
2022/01/09 02:14:48;;;;;;;3.80;0.95;;;;;;;;;;5067130;28;20634;-86
2022/01/09 02:17:20;;;;;;;5.72;1.40;;;;;;;;;;5081824;28;20176;-87
2022/01/09 02:19:50;;;;;;;4.68;1.40;;;;;;;;;;5082970;28;20222;-88
2022/01/09 02:22:16;;;;;;;1.58;0.85;;;;;;;;;;5087762;28;20181;-89
2022/01/09 02:24:43;;;;;;;5.50;1.05;;;;;;;;;;5104386;28;20243;-87
2022/01/09 02:27:10;;;;;;;3.25;1.10;;;;;;;;;;5103520;28;20186;-89
2022/01/09 02:29:36;;;;;;;2.60;0.93;;;;;;;;;;5099296;28;20626;-88
2022/01/09 02:32:02;;;;;;;4.75;1.40;;;;;;;;;;5101545;28;20188;-86
2022/01/09 02:34:28;;;;;;;6.32;1.33;;;;;;;;;;5102672;28;20180;-86
2022/01/09 02:36:54;;;;;;;6.22;1.50;;;;;;;;;;5104029;28;20262;-91
2022/01/09 02:39:20;;;;;;;4.30;1.65;;;;;;;;;;5103919;28;20218;-90
2022/01/09 02:41:46;;;;;;;7.68;1.98;;;;;;;;;;5102782;28;20237;-86
2022/01/09 02:44:12;;;;;;;5.40;1.65;;;;;;;;;;5103962;28;20191;-88
2022/01/09 02:47:05;;;;;;;9.27;1.20;;;;;;;;;;5101640;28;20210;-88
2022/01/09 02:49:32;;;;;;;8.60;1.90;;;;;;;;;;5101364;28;20171;-89
2022/01/09 02:51:58;;;;;;;6.97;1.30;;;;;;;;;;5098456;28;20175;-87
2022/01/09 02:57:09;;;;;;;5.18;1.60;;;;;;;;;;5101321;28;20684;-88
2022/01/09 02:59:35;;;;;;;4.55;1.45;;;;;;;;;;5103087;28;20214;-91
2022/01/09 03:02:01;;;;;;;5.30;1.40;;;;;;;;;;5102838;28;20184;-87
2022/01/09 03:04:27;;;;;;;3.35;1.50;;;;;;;;;;5102733;28;20167;-87
2022/01/09 03:06:53;;;;;;;5.30;1.20;;;;;;;;;;5103217;28;20233;-90
2022/01/09 03:09:19;;;;;;;7.35;2.03;;;;;;;;;;5103107;28;20190;-87
2022/01/09 03:11:47;;;;;;;6.45;1.95;;;;;;;;;;5102259;28;20195;-89
2022/01/09 03:14:13;;;;;;;5.22;1.88;;;;;;;;;;5100723;28;20202;-88
2022/01/09 03:16:39;;;;;;;9.00;2.05;;;;;;;;;;5100440;28;20211;-90
2022/01/09 03:19:05;;;;;;;6.00;1.58;;;;;;;;;;5099142;28;20227;-86
2022/01/09 03:21:31;;;;;;;6.38;1.75;;;;;;;;;;5101851;28;20602;-89
2022/01/09 03:23:57;;;;;;;6.40;1.95;;;;;;;;;;5102997;28;20187;-88
2022/01/09 03:26:23;;;;;;;7.93;1.95;;;;;;;;;;5102699;28;20251;-89
2022/01/09 03:28:49;;;;;;;5.88;1.75;;;;;;;;;;5101924;28;20184;-93
2022/01/09 03:31:15;;;;;;;8.15;2.50;;;;;;;;;;5104087;28;20595;-91
2022/01/09 03:33:41;;;;;;;7.72;1.63;;;;;;;;;;5102676;28;20231;-91
2022/01/09 03:36:07;;;;;;;3.35;1.75;;;;;;;;;;5102085;28;20184;-90
2022/01/09 03:38:33;;;;;;;8.68;2.33;;;;;;;;;;5101635;28;20252;-91
2022/01/09 03:40:59;;;;;;;5.32;1.55;;;;;;;;;;5101873;28;20183;-90
2022/01/09 03:43:25;;;;;;;4.30;1.70;;;;;;;;;;5102094;28;20231;-92
2022/01/09 03:45:51;;;;;;;4.50;1.35;;;;;;;;;;5101871;28;20176;-89
2022/01/09 03:48:17;;;;;;;7.63;1.98;;;;;;;;;;5102420;28;20211;-88
2022/01/09 03:50:51;;;;;;;10.68;1.60;;;;;;;;;;5100124;28;20187;-89
2022/01/09 03:53:17;;;;;;;4.97;1.60;;;;;;;;;;5094686;28;20190;-90
2022/01/09 03:55:43;;;;;;;6.18;2.25;;;;;;;;;;5090894;28;20195;-87
2022/01/09 03:58:10;;;;;;;6.18;1.30;;;;;;;;;;5103388;28;20221;-90
2022/01/09 04:00:35;;;;;;;5.07;1.55;;;;;;;;;;5101967;28;20576;-88
2022/01/09 04:03:01;;;;;;;4.40;1.55;;;;;;;;;;5101544;28;20183;-89
2022/01/09 04:05:27;;;;;;;6.65;1.75;;;;;;;;;;5099774;28;20202;-90
2022/01/09 04:07:53;;;;;;;9.93;1.65;;;;;;;;;;5099923;28;20188;-91
2022/01/09 04:10:22;;;;;;;10.00;2.20;;;;;;;;;;5102456;28;20179;-87
2022/01/09 04:12:51;;;;;;;7.38;2.30;;;;;;;;;;5100698;28;20695;-86
2022/01/09 04:15:17;;;;;;;9.57;2.55;;;;;;;;;;5102153;28;20184;-89
2022/01/09 04:17:54;;;;;;;6.50;1.40;;;;;;;;;;5098091;28;20195;-91
2022/01/09 04:20:21;;;;;;;16.50;2.53;;;;;;;;;;5080034;28;20179;-89
2022/01/09 04:22:47;;;;;;;5.45;1.50;;;;;;;;;;5081978;28;20227;-88
2022/01/09 04:25:14;;;;;;;6.35;1.90;;;;;;;;;;5079135;28;20176;-89
2022/01/09 04:27:40;;;;;;;4.53;1.20;;;;;;;;;;5064607;28;20187;-87
2022/01/09 04:30:06;;;;;;;5.57;1.55;;;;;;;;;;5059865;28;20181;-88
2022/01/09 04:32:32;;;;;;;7.88;1.98;;;;;;;;;;5064872;28;20214;-88
2022/01/09 04:34:58;;;;;;;8.90;1.70;;;;;;;;;;5080244;28;20173;-89
2022/01/09 04:37:25;;;;;;;3.60;1.83;;;;;;;;;;5064963;28;20172;-88
2022/01/09 04:39:53;;;;;;;7.25;1.90;;;;;;;;;;5066006;28;20203;-91
2022/01/09 04:42:23;;;;;;;8.98;1.80;;;;;;;;;;5065909;28;20180;-90
2022/01/09 04:44:49;;;;;;;7.07;2.10;;;;;;;;;;5065508;28;20188;-90
2022/01/09 04:47:16;;;;;;;7.32;1.58;;;;;;;;;;5079620;28;20176;-89
2022/01/09 04:49:45;;;;;;;7.38;2.17;;;;;;;;;;5064217;28;20184;-90
2022/01/09 04:52:15;;;;;;;7.32;1.67;;;;;;;;;;5065024;28;20200;-91
2022/01/09 04:54:42;;;;;;;2.65;1.20;;;;;;;;;;5061705;28;20183;-92
2022/01/09 04:57:08;;;;;;;9.38;2.05;;;;;;;;;;5075953;28;20198;-92
2022/01/09 04:59:34;;;;;;;17.27;2.83;;;;;;;;;;5064676;28;20209;-88
2022/01/09 05:02:00;;;;;;;12.82;2.03;;;;;;;;;;5063398;28;20188;-88
2022/01/09 05:04:26;;;;;;;11.25;2.40;;;;;;;;;;5064416;28;20222;-88
2022/01/09 05:06:52;;;;;;;4.68;1.45;;;;;;;;;;5069042;28;20199;-88
2022/01/09 05:09:18;;;;;;;4.97;1.83;;;;;;;;;;5067706;28;20263;-88
2022/01/09 05:11:44;;;;;;;10.55;2.22;;;;;;;;;;5068494;28;20231;-87
2022/01/09 05:14:10;;;;;;;1.55;1.02;;;;;;;;;;5068422;28;20180;-87
2022/01/09 05:16:37;;;;;;;12.40;2.03;;;;;;;;;;5063655;28;20200;-88
2022/01/09 05:19:07;;;;;;;6.35;1.50;;;;;;;;;;5077051;28;20225;-90
2022/01/09 05:21:33;;;;;;;7.75;2.10;;;;;;;;;;5103754;28;20195;-91
2022/01/09 05:23:59;;;;;;;5.90;1.63;;;;;;;;;;5103865;28;20641;-88
2022/01/09 05:26:25;;;;;;;13.05;2.30;;;;;;;;;;5100519;28;20180;-87
2022/01/09 05:28:51;;;;;;;10.40;2.63;;;;;;;;;;5102482;28;20195;-88
2022/01/09 05:31:17;;;;;;;9.23;2.05;;;;;;;;;;5105032;28;20256;-88
2022/01/09 05:33:43;;;;;;;7.07;1.85;;;;;;;;;;5104200;28;20172;-88
2022/01/09 05:36:09;;;;;;;9.32;1.88;;;;;;;;;;5102682;28;20191;-88
2022/01/09 05:38:35;;;;;;;3.45;1.40;;;;;;;;;;5104613;28;20226;-88
2022/01/09 05:41:01;;;;;;;6.68;1.65;;;;;;;;;;5105477;28;20184;-88
2022/01/09 05:43:27;;;;;;;4.63;1.67;;;;;;;;;;5104494;28;20188;-89
2022/01/09 05:45:53;;;;;;;5.25;1.55;;;;;;;;;;5090308;28;20430;-89
2022/01/09 05:48:19;;;;;;;5.13;1.60;;;;;;;;;;5101844;28;20192;-89
2022/01/09 05:50:45;;;;;;;5.65;2.03;;;;;;;;;;5102346;28;20227;-89
2022/01/09 05:53:11;;;;;;;7.20;1.83;;;;;;;;;;5106469;28;20172;-89
2022/01/09 05:55:37;;;;;;;10.25;1.90;;;;;;;;;;5102579;28;20215;-89
2022/01/09 05:58:03;;;;;;;4.88;1.83;;;;;;;;;;5101937;28;20206;-89
2022/01/09 06:00:29;;;;;;;9.63;1.73;;;;;;;;;;5104817;28;20184;-87
2022/01/09 06:02:55;;;;;;;4.72;1.08;;;;;;;;;;5104248;28;20209;-89
2022/01/09 06:05:23;;;;;;;7.93;1.98;;;;;;;;;;5104482;28;20187;-91
2022/01/09 06:07:49;;;;;;;10.10;1.75;;;;;;;;;;5103075;28;20180;-90
2022/01/09 06:10:15;;;;;;;9.48;1.83;;;;;;;;;;5106588;28;20168;-90
2022/01/09 06:12:42;;;;;;;7.40;1.95;;;;;;;;;;5104065;28;20178;-91
2022/01/09 06:15:09;;;;;;;4.85;1.42;;;;;;;;;;5100992;28;20184;-88
2022/01/09 06:17:39;;;;;;;5.03;1.40;;;;;;;;;;5102825;28;20187;-89
2022/01/09 06:20:07;;;;;;;3.35;2.00;;;;;;;;;;5067276;28;20199;-91
2022/01/09 06:22:33;;;;;;;6.75;2.40;;;;;;;;;;5062962;28;20173;-91
2022/01/09 06:24:59;;;;;;;8.23;2.53;;;;;;;;;;5068441;28;20168;-89
2022/01/09 06:27:25;;;;;;;4.13;1.67;;;;;;;;;;5065575;28;20196;-90
2022/01/09 06:29:52;;;;;;;4.45;1.55;;;;;;;;;;5066620;28;20184;-91
2022/01/09 06:32:18;;;;;;;6.45;1.83;;;;;;;;;;5066301;28;20177;-92
2022/01/09 06:34:44;;;;;;;2.05;0.90;;;;;;;;;;5080524;28;20197;-88
2022/01/09 06:37:13;;;;;;;6.10;1.30;;;;;;;;;;5053736;28;20208;-89
2022/01/09 06:39:39;;;;;;;5.25;1.02;;;;;;;;;;5071922;28;20212;-87
2022/01/09 06:42:06;;;;;;;4.95;1.13;;;;;;;;;;5073332;28;20181;-88
2022/01/09 06:44:32;;;;;;;4.10;1.20;;;;;;;;;;5072709;28;20181;-87
2022/01/09 06:46:58;;;;;;;5.13;1.17;;;;;;;;;;5065815;28;20184;-86
2022/01/09 06:49:24;;;;;;;1.83;0.70;;;;;;;;;;5066136;28;20211;-86
2022/01/09 06:51:50;;;;;;;4.18;1.40;;;;;;;;;;5067128;28;20180;-87
2022/01/09 06:54:16;;;;;;;4.60;1.40;;;;;;;;;;5066915;28;20188;-87
2022/01/09 06:56:42;;;;;;;3.92;1.35;;;;;;;;;;5066239;28;20545;-87
2022/01/09 06:59:08;;;;;;;4.28;1.30;;;;;;;;;;5061255;28;20693;-87
2022/01/09 07:01:34;;;;;;;3.97;1.55;;;;;;;;;;5065650;28;20231;-86
2022/01/09 07:04:00;;;;;;;9.20;1.23;;;;;;;;;;5084785;28;20179;-86
2022/01/09 07:06:26;;;;;;;2.40;1.13;;;;;;;;;;5066038;28;20192;-86
2022/01/09 07:08:52;;;;;;;4.85;1.45;;;;;;;;;;5062569;28;20210;-86
2022/01/09 07:11:18;;;;;;;3.03;1.15;;;;;;;;;;5080812;28;20244;-86
2022/01/09 07:13:44;;;;;;;5.30;1.70;;;;;;;;;;5062372;28;20185;-87
2022/01/09 07:16:10;;;;;;;6.25;1.77;;;;;;;;;;5084064;28;20192;-87
2022/01/09 07:18:36;;;;;;;7.68;1.35;;;;;;;;;;5081492;28;20258;-87
2022/01/09 07:21:03;;;;;;;5.68;2.15;;;;;;;;;;5098367;28;20274;-86
2022/01/09 07:23:29;;;;;;;5.55;1.10;;;;;;;;;;5099385;28;20176;-86
2022/01/09 07:25:55;;;;;;;5.32;1.40;;;;;;;;;;5102711;28;20672;-86
2022/01/09 07:28:21;;;;;;;9.10;1.35;;;;;;;;;;5102628;28;20175;-86
2022/01/09 07:30:47;;;;;;;5.53;1.70;;;;;;;;;;5102408;28;20172;-88
2022/01/09 07:33:13;;;;;;;5.53;2.05;;;;;;;;;;5102861;28;20595;-87
2022/01/09 07:35:39;;;;;;;8.15;2.30;;;;;;;;;;5102848;28;23344;-86
2022/01/09 07:38:05;;;;;;;6.78;1.73;;;;;;;;;;5100941;28;20250;-84
2022/01/09 07:40:32;;;;;;;24.38;2.88;;;;;;;;;;5101775;28;20168;-84
2022/01/09 07:42:58;;;;;;;9.18;1.63;;;;;;;;;;5098586;28;20243;-87
2022/01/09 07:45:27;;;;;;;2.53;0.93;;;;;;;;;;5098635;28;20190;-87
2022/01/09 07:47:54;;;;;;;4.68;1.40;;;;;;;;;;5090305;28;20217;-87
2022/01/09 07:50:22;;;;;;;3.78;1.40;;;;;;;;;;5101495;28;20180;-86
2022/01/09 07:52:48;;;;;;;7.80;2.70;;;;;;;;;;5101738;28;20204;-86
2022/01/09 07:55:15;;;;;;;4.30;1.63;;;;;;;;;;5102762;28;20174;-87
2022/01/09 07:57:41;;;;;;;4.53;1.35;;;;;;;;;;5088302;28;20184;-86
2022/01/09 08:00:08;;;;;;;2.08;0.90;;;;;;;;;;5101221;28;20698;-86
2022/01/09 08:02:35;;;;;;;3.92;1.10;;;;;;;;;;5102391;28;20206;-86
2022/01/09 08:05:01;;;;;;;2.75;1.25;;;;;;;;;;5101625;28;20211;-82
2022/01/09 08:07:27;;;;;;;3.08;1.10;;;;;;;;;;5101647;28;20201;-81
2022/01/09 08:09:53;;;;;;;3.17;1.77;;;;;;;;;;5095750;28;20183;-82
2022/01/09 08:12:19;;;;;;;5.18;1.10;;;;;;;;;;5094210;28;20662;-82
2022/01/09 08:14:47;;;;;;;2.28;1.10;;;;;;;;;;5098634;28;20215;-81
2022/01/09 08:17:13;;;;;;;3.90;1.30;;;;;;;;;;5089979;28;20661;-83
2022/01/09 08:19:40;;;;;;;5.65;1.00;;;;;;;;;;5095532;28;20211;-87
2022/01/09 08:22:06;;;;;;;3.33;1.65;;;;;;;;;;5099970;28;20191;-86
2022/01/09 08:24:36;;;;;;;4.68;1.90;;;;;;;;;;5100608;28;20231;-84
2022/01/09 08:27:03;;;;;;;2.83;1.38;;;;;;;;;;5092305;28;20184;-87
2022/01/09 08:29:29;;;;;;;8.52;1.30;;;;;;;;;;5087354;28;20221;-87
2022/01/09 08:31:55;;;;;;;7.53;1.55;;;;;;;;;;5094034;28;20468;-86
2022/01/09 08:34:21;;;;;;;3.10;1.75;;;;;;;;;;5097863;28;20180;-86
2022/01/09 08:36:47;;;;;;;6.05;1.63;;;;;;;;;;5094431;28;20615;-82
2022/01/09 08:39:13;;;;;;;7.28;2.00;;;;;;;;;;5093302;28;20271;-84
2022/01/09 08:41:40;;;;;;;4.60;1.40;;;;;;;;;;5096519;28;20186;-87
2022/01/09 08:44:07;;;;;;;7.38;1.73;;;;;;;;;;5097636;28;20210;-87
2022/01/09 08:46:33;;;;;;;5.03;1.35;;;;;;;;;;5104467;28;20183;-86
2022/01/09 08:49:00;;;;;;;3.58;1.38;;;;;;;;;;5107140;28;20527;-86
2022/01/09 08:51:26;;;;;;;5.20;1.40;;;;;;;;;;5100811;28;20263;-84
2022/01/09 08:53:52;;;;;;;4.25;1.50;;;;;;;;;;5098138;28;21311;-86
2022/01/09 08:56:19;;;;;;;6.03;1.20;;;;;;;;;;5093288;28;20212;-90
2022/01/09 08:58:45;;;;;;;4.15;1.33;;;;;;;;;;5096141;28;20242;-86
2022/01/09 09:01:28;;;;;;;4.10;1.65;;;;;;;;;;5101065;28;20183;-87
2022/01/09 09:03:54;;;;;;;5.20;1.42;;;;;;;;;;5102606;28;20188;-85
2022/01/09 09:06:20;;;;;;;4.50;1.63;;;;;;;;;;5103385;28;20187;-88
2022/01/09 09:08:46;;;;;;;4.20;2.13;;;;;;;;;;5099269;28;20195;-86
2022/01/09 09:11:12;;;;;;;4.68;1.48;;;;;;;;;;5101592;28;20184;-88
2022/01/09 09:13:39;;;;;;;4.47;2.15;;;;;;;;;;5094033;28;20213;-87
2022/01/09 09:16:05;;;;;;;9.02;2.33;;;;;;;;;;5094755;28;20173;-89
2022/01/09 09:18:31;;;;;;;9.57;2.33;;;;;;;;;;5094520;28;20224;-88
2022/01/09 09:20:58;;;;;;;8.18;1.60;;;;;;;;;;5067993;28;20275;-92
2022/01/09 09:23:25;;;;;;;5.50;2.03;;;;;;;;;;5065390;28;20192;-90
2022/01/09 09:25:51;;;;;;;6.07;2.17;;;;;;;;;;5050311;28;20315;-94
2022/01/09 09:28:18;;;;;;;8.00;1.60;;;;;;;;;;5052869;28;20177;-89
2022/01/09 09:30:47;;;;;;;3.92;1.10;;;;;;;;;;5066164;28;20192;-93
2022/01/09 09:33:13;;;;;;;3.90;1.65;;;;;;;;;;5067014;28;20206;-91
2022/01/09 09:35:39;;;;;;;8.02;1.70;;;;;;;;;;5065262;28;20184;-94
2022/01/09 09:38:06;;;;;;;2.45;1.80;;;;;;;;;;5067002;28;20204;-92
2022/01/09 09:40:32;;;;;;;3.97;1.80;;;;;;;;;;5068648;28;20153;-91
2022/01/09 09:42:58;;;;;;;5.68;1.40;;;;;;;;;;5067068;28;20199;-93
2022/01/09 09:45:25;;;;;;;9.77;1.45;;;;;;;;;;5067871;28;20189;-91
2022/01/09 09:47:51;;;;;;;3.28;1.30;;;;;;;;;;5083422;28;20267;-92
2022/01/09 09:50:21;;;;;;;8.85;1.35;;;;;;;;;;5066924;28;20200;-91
2022/01/09 09:52:48;;;;;;;4.63;1.23;;;;;;;;;;5063530;28;20177;-91
2022/01/09 09:55:15;;;;;;;3.33;1.10;;;;;;;;;;5082793;28;20164;-93
2022/01/09 09:57:41;;;;;;;1.77;0.90;;;;;;;;;;5067144;28;20211;-91
2022/01/09 10:00:09;;;;;;;4.90;1.10;;;;;;;;;;5066405;28;20204;-90
2022/01/09 10:02:44;;;;;;;3.22;1.25;;;;;;;;;;5065510;28;20203;-91
2022/01/09 10:05:11;;;;;;;5.93;1.52;;;;;;;;;;5066251;28;20180;-90
2022/01/09 10:07:37;;;;;;;4.45;1.42;;;;;;;;;;5063515;28;20277;-91
2022/01/09 10:10:09;;;;;;;3.00;1.40;;;;;;;;;;5067585;28;20180;-90
2022/01/09 10:12:35;;;;;;;4.32;1.27;;;;;;;;;;5067429;28;20184;-90
2022/01/09 10:15:06;;;;;;;3.90;0.98;;;;;;;;;;5065856;28;20191;-90
2022/01/09 10:17:34;;;;;;;3.30;1.13;;;;;;;;;;5064834;28;20184;-90
2022/01/09 10:20:04;;;;;;;4.00;1.00;;;;;;;;;;5065859;28;20233;-90
2022/01/09 10:22:40;;;;;;;4.22;1.00;;;;;;;;;;5066087;28;20203;-88
2022/01/09 10:25:25;;;;;;;2.75;1.55;;;;;;;;;;5067248;28;20222;-86
2022/01/09 10:27:55;;;;;;;3.15;0.98;;;;;;;;;;5066797;28;20183;-89
2022/01/09 10:30:23;;;;;;;1.55;1.10;;;;;;;;;;5066110;28;20184;-91
2022/01/09 10:32:53;;;;;;;1.27;1.02;;;;;;;;;;5066201;28;20192;-90
2022/01/09 10:35:20;;;;;;;4.60;1.98;;;;;;;;;;5066379;28;20176;-90
2022/01/09 10:37:49;;;;;;;3.55;1.40;;;;;;;;;;5048267;28;20192;-91
2022/01/09 10:40:29;;;;;;;1.55;0.77;;;;;;;;;;5063982;28;20177;-91
2022/01/09 10:43:10;;;;;;;1.17;1.00;;;;;;;;;;5054283;28;20176;-90
2022/01/09 10:45:41;;;;;;;2.10;1.02;;;;;;;;;;5064823;28;20184;-89
2022/01/09 10:48:12;;;;;;;3.53;1.13;;;;;;;;;;5061129;28;20195;-85
2022/01/09 10:50:40;;;;;;;2.65;1.20;;;;;;;;;;5061115;28;20193;-89
2022/01/09 10:53:17;;;;;;;2.53;0.90;;;;;;;;;;5063087;28;20185;-88
2022/01/09 10:55:44;;;;;;;1.65;0.98;;;;;;;;;;5060972;28;20195;-86
2022/01/09 10:58:23;;;;;;;2.10;0.90;;;;;;;;;;5065272;28;20201;-88
2022/01/09 11:01:09;;;;;;;5.22;1.25;;;;;;;;;;5047249;28;20184;-84
2022/01/09 11:03:35;;;;;;;2.78;0.93;;;;;;;;;;5058537;28;20219;-82
2022/01/09 11:06:02;;;;;;;2.78;1.10;;;;;;;;;;5061884;28;20184;-83
2022/01/09 11:08:31;;;;;;;2.60;1.35;;;;;;;;;;5060361;28;20181;-82
2022/01/09 11:10:59;;;;;;;0.98;0.90;;;;;;;;;;5063400;28;20181;-83
2022/01/09 11:13:25;;;;;;;1.15;1.02;;;;;;;;;;5065219;28;20685;-83
2022/01/09 11:18:37;;;;;;;2.53;1.40;;;;;;;;;;5081516;28;20286;-84
2022/01/09 11:21:03;;;;;;;2.55;1.00;;;;;;;;;;5064514;28;20266;-84
2022/01/09 11:23:34;;;;;;;4.40;1.65;;;;;;;;;;5062504;28;20181;-84
2022/01/09 11:26:02;;;;;;;4.15;2.55;;;;;;;;;;5075693;28;20181;-83
2022/01/09 11:28:33;;;;;;;3.20;2.30;;;;;;;;;;5063657;28;20183;-83
2022/01/09 11:31:10;;;;;;;3.65;1.90;;;;;;;;;;5064006;28;20172;-83
2022/01/09 11:33:46;;;;;;;4.50;2.20;;;;;;;;;;5064426;28;20214;-83
2022/01/09 11:36:18;;;;;;;2.88;1.70;;;;;;;;;;5064932;28;20188;-84
2022/01/09 11:38:50;;;;;;;3.53;2.78;;;;;;;;;;5065022;28;20222;-85
2022/01/09 11:41:24;;;;;;;5.88;2.22;;;;;;;;;;5079815;28;20181;-85
2022/01/09 11:44:00;;;;;;;3.95;2.28;;;;;;;;;;5063652;28;20177;-85
2022/01/09 11:46:28;;;;;;;5.55;2.67;;;;;;;;;;5062221;28;20183;-84
2022/01/09 11:48:54;;;;;;;5.47;4.18;;;;;;;;;;5065416;28;20185;-85
2022/01/09 11:51:21;;;;;;;7.40;5.53;;;;;;;;;;5060595;28;20241;-85
2022/01/09 11:53:56;;;;;;;3.83;3.42;;;;;;;;;;5061665;28;20430;-85
2022/01/09 11:56:41;;;;;;;5.90;3.92;;;;;;;;;;5059044;28;20194;-84
2022/01/09 11:59:17;;;;;;;6.40;5.68;;;;;;;;;;5059140;28;20211;-83
2022/01/09 12:01:45;;;;;;;12.68;6.35;;;;;;;;;;5070415;28;20271;-83
2022/01/09 12:04:29;;;;;;;2.85;2.17;;;;;;;;;;5065304;28;20653;-85
2022/01/09 12:06:56;;;;;;;2.45;1.20;;;;;;;;;;5052987;28;20276;-84
2022/01/09 12:09:34;;;;;;;2.35;1.88;;;;;;;;;;5076396;28;20241;-84
2022/01/09 12:12:04;;;;;;;2.33;1.70;;;;;;;;;;5073140;28;20219;-84
2022/01/09 12:14:42;;;;;;;3.05;1.20;;;;;;;;;;5054233;28;20172;-85
2022/01/09 12:17:28;;;;;;;1.92;1.80;;;;;;;;;;5065230;28;20189;-85
2022/01/09 12:19:54;;;;;;;3.75;3.30;;;;;;;;;;5066573;28;20220;-86
2022/01/09 12:22:41;;;;;;;3.60;2.78;;;;;;;;;;5060738;28;20176;-85
2022/01/09 12:25:07;;;;;;;3.22;2.72;;;;;;;;;;5065038;28;20209;-86
2022/01/09 12:27:38;;;;;;;2.67;2.03;;;;;;;;;;5054086;28;20193;-86
2022/01/09 12:30:05;;;;;;;2.17;1.80;;;;;;;;;;5068776;28;20180;-87
2022/01/09 12:32:43;;;;;;;3.17;1.90;;;;;;;;;;5053905;28;20180;-86
2022/01/09 12:35:19;;;;;;;2.35;1.90;;;;;;;;;;5062818;28;20192;-86
2022/01/09 12:37:46;;;;;;;1.90;1.70;;;;;;;;;;5061960;28;20253;-86
2022/01/09 12:40:14;;;;;;;2.28;2.08;;;;;;;;;;5083945;28;20256;-86
2022/01/09 12:42:43;;;;;;;5.25;3.47;;;;;;;;;;5060800;28;20216;-86
2022/01/09 12:45:09;;;;;;;6.00;2.67;;;;;;;;;;5063889;28;20176;-86
2022/01/09 12:47:40;;;;;;;2.55;2.35;;;;;;;;;;5061081;28;20189;-86
2022/01/09 12:50:06;;;;;;;4.85;3.00;;;;;;;;;;5064754;28;20193;-86
2022/01/09 12:52:32;;;;;;;1.70;1.60;;;;;;;;;;5080705;28;20176;-85
2022/01/09 12:55:08;;;;;;;4.50;1.75;;;;;;;;;;5060226;28;21128;-87
2022/01/09 12:57:54;;;;;;;2.05;1.80;;;;;;;;;;5078766;28;20237;-86
2022/01/09 13:00:27;;;;;;;2.80;1.20;;;;;;;;;;5055091;28;20662;-86
2022/01/09 13:02:54;;;;;;;4.25;2.03;;;;;;;;;;5057724;28;20180;-88
2022/01/09 13:05:27;;;;;;;6.00;4.05;;;;;;;;;;5061542;28;20245;-87
2022/01/09 13:08:00;;;;;;;3.70;3.35;;;;;;;;;;5062074;28;20196;-87
2022/01/09 13:10:31;;;;;;;4.18;3.83;;;;;;;;;;5064593;28;20176;-89
2022/01/09 13:13:01;;;;;;;12.77;6.40;;;;;;;;;;5062568;28;20202;-88
2022/01/09 13:15:34;;;;;;;7.13;4.75;;;;;;;;;;5062476;28;20275;-86
2022/01/09 13:18:01;;;;;;;6.00;3.60;;;;;;;;;;5070381;28;20370;-90
2022/01/09 13:20:27;;;;;;;11.25;4.38;;;;;;;;;;5100673;28;20191;-90
2022/01/09 13:23:05;;;;;;;6.63;4.78;;;;;;;;;;5097836;28;20192;-91
2022/01/09 13:25:42;;;;;;;7.63;5.13;;;;;;;;;;5098859;28;20178;-94
2022/01/09 13:28:16;;;;;;;8.25;5.75;;;;;;;;;;5106204;28;20168;-92
2022/01/09 13:30:45;;;;;;;8.07;4.90;;;;;;;;;;5103824;28;20187;-95
2022/01/09 13:33:11;;;;;;;8.13;5.70;;;;;;;;;;5099547;28;20180;-94
2022/01/09 13:35:37;;;;;;;4.85;4.32;;;;;;;;;;5101508;28;20678;-92
2022/01/09 13:38:13;;;;;;;9.10;4.75;;;;;;;;;;5104729;28;20196;-94
2022/01/09 13:40:39;;;;;;;8.32;5.78;;;;;;;;;;5022927;23;20257;-81
2022/01/09 13:43:06;;;;;;;7.28;5.38;;;;;;;;;;5025675;28;20173;-84
2022/01/09 13:45:37;;;;;;;10.75;5.78;;;;;;;;;;5021808;28;20196;-85
2022/01/09 13:48:04;;;;;;;10.52;6.80;;;;;;;;;;5021697;28;20193;-85
2022/01/09 13:50:33;;;;;;;14.15;7.00;;;;;;;;;;5021956;28;20659;-85
2022/01/09 13:53:09;;;;;;;11.15;6.53;;;;;;;;;;5022424;28;20207;-83
2022/01/09 13:55:36;;;;;;;9.70;6.32;;;;;;;;;;5022828;28;20170;-84
2022/01/09 13:58:06;;;;;;;9.63;6.97;;;;;;;;;;5014135;28;20550;-85
2022/01/09 14:00:34;;;;;;;5.22;4.38;;;;;;;;;;5017495;28;20269;-88
2022/01/09 14:03:00;;;;;;;6.35;5.63;;;;;;;;;;5021653;28;20186;-87
2022/01/09 14:05:29;;;;;;;5.50;4.63;;;;;;;;;;5020711;28;20194;-87
2022/01/09 14:07:58;;;;;;;6.93;4.18;;;;;;;;;;5021560;28;20664;-88
2022/01/09 14:10:33;;;;;;;10.70;5.97;;;;;;;;;;5022361;28;20246;-86
2022/01/09 14:12:59;;;;;;;8.55;6.85;;;;;;;;;;5018993;28;20190;-86
2022/01/09 14:15:27;;;;;;;9.38;6.68;;;;;;;;;;5020937;28;20187;-87
2022/01/09 14:17:54;;;;;;;5.55;3.65;;;;;;;;;;5020072;28;20191;-87
2022/01/09 14:20:24;;;;;;;10.60;4.72;;;;;;;;;;5018283;28;20214;-88
2022/01/09 14:22:52;;;;;;;8.00;4.18;;;;;;;;;;5007593;28;20193;-87
2022/01/09 14:25:24;;;;;;;4.03;3.35;;;;;;;;;;5021567;28;20179;-88
2022/01/09 14:27:50;;;;;;;2.55;2.25;;;;;;;;;;5023943;28;20179;-89
2022/01/09 14:30:28;;;;;;;5.60;2.53;;;;;;;;;;5021544;28;20316;-88
2022/01/09 14:33:07;;;;;;;2.60;2.05;;;;;;;;;;5023204;28;20655;-90
2022/01/09 14:35:35;;;;;;;4.50;1.88;;;;;;;;;;5022899;28;20270;-87
2022/01/09 14:38:02;;;;;;;5.78;2.30;;;;;;;;;;5021478;28;20187;-88
2022/01/09 14:40:28;;;;;;;3.70;1.67;;;;;;;;;;5023078;28;20280;-86
2022/01/09 14:42:54;;;;;;;4.25;3.63;;;;;;;;;;5023325;28;20182;-87
2022/01/09 14:45:20;;;;;;;16.08;11.48;;;;;;;;;;5023233;28;20190;-87
2022/01/09 14:47:48;;;;;;;11.23;8.27;;;;;;;;;;5022204;28;20190;-87
2022/01/09 14:50:14;;;;;;;5.05;3.75;;;;;;;;;;5023411;28;20198;-87
2022/01/09 14:52:40;;;;;;;11.80;7.90;;;;;;;;;;5021860;28;20287;-87